Latest Weather Observations for Hay Airport

IDN60801

Issued at 7:34 am EDT Wednesday 28 January 2015 (issued every 30 minutes, with the page automatically refreshed every 10 minutes)

About weather observations | Map of weather stations | Latest weather observations for NSW | Other Formats
Station Details ID: 075019 Name: HAY AIRPORT AWS Lat: -34.54 Lon: 144.83 Height: 92.0 m
Data from the previous 72 hours. | See also: Recent months for locations in New South Wales
Date/Time
EDT
Temp
°C
App
Temp
°C
Dew
Point
Rel
Hum
%
Delta-T
°C
Wind Press
QNH
hPa
Press
MSL
hPa
Rain
since 9 am
mm
Dir
 
Spd
km/h
Gust
km/h
Spd
kts
Gust
kts
28/07:30am 19.6 17.9 12.6 64 3.9 ESE 13 19 7 10 1011.9 1011.4 0.0
28/07:00am 17.2 15.4 10.8 66 3.4 ESE 11 15 6 8 1011.6 1011.1 0.0
28/06:30am 17.1 14.4 10.2 64 3.7 SSE 15 19 8 10 1011.4 1010.9 0.0
28/06:00am 17.4 14.7 10.3 63 3.8 SSE 15 19 8 10 1011.3 1010.9 0.0
28/05:30am 17.2 14.0 10.1 63 3.8 SSE 17 20 9 11 1011.0 1010.6 0.0
28/05:00am 17.3 14.0 9.7 61 4.0 SSE 17 22 9 12 1010.8 1010.4 0.0
28/04:30am 16.7 12.9 8.9 60 4.0 SSE 19 24 10 13 1010.7 1010.3 0.0
28/04:00am 16.6 12.5 8.6 59 4.1 S 20 28 11 15 1010.8 1010.4 0.0
28/03:30am 16.7 12.5 8.4 58 4.3 S 20 30 11 16 1010.9 1010.5 0.0
28/03:00am 16.7 12.1 8.1 57 4.4 S 22 35 12 19 1011.1 1010.7 0.0
28/02:30am 16.8 12.5 8.0 56 4.5 S 20 26 11 14 1011.3 1010.8 0.0
28/02:00am 17.0 12.6 7.6 54 4.8 S 20 28 11 15 1011.3 1010.8 0.0
28/01:30am 17.4 12.3 7.7 53 4.9 S 24 33 13 18 1011.6 1011.1 0.0
28/01:00am 18.0 13.2 7.4 50 5.4 S 22 32 12 17 1011.7 1011.2 0.0
28/12:30am 18.8 12.9 7.6 48 5.7 S 28 41 15 22 1011.7 1011.2 0.0
28/12:00am 19.4 12.8 7.8 47 6.0 S 32 43 17 23 1011.9 1011.4 0.0
 
Date/Time
EDT
Temp
°C
App
Temp
°C
Dew
Point
Rel
Hum
%
Delta-T
°C
Wind Press
QNH
hPa
Press
MSL
hPa
Rain
since 9 am
mm
Dir
 
Spd
km/h
Gust
km/h
Spd
kts
Gust
kts
27/11:30pm 19.9 12.7 7.6 45 6.3 S 35 44 19 24 1011.4 1010.9 0.0
27/11:00pm 20.8 13.2 7.4 42 6.9 S 37 46 20 25 1010.9 1010.5 0.0
27/10:30pm 22.0 14.1 6.3 36 8.0 S 37 57 20 31 1010.7 1010.3 0.0
27/10:10pm 22.7 16.2 6.5 35 8.3 S 30 48 16 26 1010.4 1010.0 0.0
27/10:00pm 23.1 15.6 6.4 34 8.6 S 35 50 19 27 1010.3 1009.9 0.0
27/09:30pm 24.1 16.6 6.4 32 9.1 S 35 50 19 27 1009.9 1009.5 0.0
27/09:04pm 25.4 19.3 6.6 30 9.8 S 28 46 15 25 1009.4 1009.0 0.0
27/09:00pm 25.8 20.9 6.9 30 10.0 S 22 28 12 15 1009.3 1008.9 0.0
27/08:30pm 26.6 21.0 7.1 29 10.4 S 26 32 14 17 1008.9 1008.5 0.0
27/08:00pm 27.4 22.1 6.8 27 10.9 S 24 32 13 17 1008.8 1008.4 0.0
27/07:30pm 28.1 22.8 6.8 26 11.3 SSE 24 39 13 21 1008.3 1007.9 0.0
27/07:00pm 28.2 22.4 6.3 25 11.6 S 26 33 14 18 1008.1 1007.7 0.0
27/06:30pm 28.6 22.9 6.7 25 11.7 S 26 39 14 21 1007.8 1007.4 0.0
27/06:00pm 28.8 23.7 6.2 24 12.0 S 22 35 12 19 1007.7 1007.3 0.0
27/05:30pm 28.5 22.8 4.7 22 12.3 S 24 37 13 20 1008.0 1007.6 0.0
27/05:00pm 28.0 22.9 3.0 20 12.5 S 19 28 10 15 1008.3 1007.9 0.0
27/04:30pm 28.4 23.5 4.0 21 12.4 S 19 33 10 18 1008.5 1008.1 0.0
27/04:00pm 27.8 23.3 4.2 22 12.0 SSE 17 28 9 15 1008.9 1008.5 0.0
27/03:30pm 27.2 22.4 4.9 24 11.4 S 19 30 10 16 1009.3 1008.9 0.0
27/03:00pm 26.7 23.3 3.9 23 11.5 SSE 11 24 6 13 1009.8 1009.4 0.0
27/02:30pm 25.9 21.8 4.4 25 10.8 SW 15 24 8 13 1010.2 1009.8 0.0
27/02:00pm 25.4 21.8 5.1 27 10.3 S 13 20 7 11 1010.5 1010.1 0.0
27/01:30pm 25.2 21.3 5.4 28 10.1 SSW 15 24 8 13 1011.0 1010.6 0.0
27/01:00pm 24.3 19.6 6.1 31 9.4 SW 20 32 11 17 1011.6 1011.1 0.0
27/12:30pm 23.6 19.5 6.0 32 9.0 SW 17 30 9 16 1012.0 1011.5 0.0
27/12:00pm 22.4 18.1 5.4 33 8.5 SSW 17 24 9 13 1012.4 1011.9 0.0
27/11:30am 21.2 16.6 6.3 38 7.5 SSW 20 28 11 15 1012.8 1012.3 0.0
27/11:00am 20.3 16.0 7.0 42 6.8 SW 19 26 10 14 1012.9 1012.4 0.0
27/10:30am 19.7 15.4 7.1 44 6.4 SSW 19 30 10 16 1013.2 1012.7 0.0
27/10:00am 18.7 14.7 6.5 45 6.1 SSW 17 26 9 14 1013.2 1012.7 0.0
27/09:30am 17.7 13.7 6.6 48 5.5 S 17 22 9 12 1013.1 1012.6 0.0
27/09:00am 16.5 12.1 6.6 52 4.9 S 19 26 10 14 1013.1 1012.6 0.0
27/08:30am 15.6 10.3 6.6 55 4.4 SSW 24 32 13 17 1013.0 1012.5 0.0
27/08:00am 14.3 9.5 5.7 56 4.1 SSW 20 28 11 15 1012.9 1012.4 0.0
27/07:30am 13.2 9.7 5.6 60 3.6 SSW 13 19 7 10 1012.7 1012.2 0.0
27/07:00am 12.0 8.5 5.6 65 3.0 SSW 13 17 7 9 1012.7 1012.2 0.0
27/06:30am 11.6 8.1 5.3 65 2.9 SSW 13 15 7 8 1012.5 1012.0 0.0
27/06:00am 12.2 8.7 5.4 63 3.2 S 13 15 7 8 1012.5 1012.0 0.0
27/05:30am 12.6 9.1 5.3 61 3.4 SSW 13 17 7 9 1012.4 1011.9 0.0
27/05:00am 13.3 9.8 5.5 59 3.7 S 13 19 7 10 1012.3 1011.8 0.0
27/04:30am 13.8 10.0 5.7 58 3.8 S 15 22 8 12 1012.4 1011.9 0.0
27/04:00am 14.2 10.0 5.8 57 4.0 S 17 20 9 11 1012.4 1011.9 0.0
27/03:30am 14.6 9.5 6.2 57 4.1 S 22 30 12 16 1012.3 1011.8 0.0
27/03:00am 15.1 10.6 6.1 55 4.4 S 19 26 10 14 1012.6 1012.1 0.0
27/02:30am 15.5 10.8 6.0 53 4.6 S 20 26 11 14 1012.6 1012.1 0.0
27/02:00am 16.1 10.9 5.7 50 5.0 S 22 30 12 16 1012.7 1012.2 0.0
27/01:30am 16.6 11.8 5.6 48 5.3 S 20 28 11 15 1012.9 1012.4 0.0
27/01:00am 17.3 12.4 5.3 45 5.8 S 20 24 11 13 1012.8 1012.3 0.0
27/12:30am 17.9 13.1 4.5 41 6.4 S 19 24 10 13 1012.8 1012.3 0.0
27/12:00am 18.5 13.4 3.9 38 6.9 S 20 28 11 15 1012.7 1012.2 0.0
 
Date/Time
EDT
Temp
°C
App
Temp
°C
Dew
Point
Rel
Hum
%
Delta-T
°C
Wind Press
QNH
hPa
Press
MSL
hPa
Rain
since 9 am
mm
Dir
 
Spd
km/h
Gust
km/h
Spd
kts
Gust
kts
26/11:30pm 18.9 13.9 3.5 36 7.3 S 19 26 10 14 1012.7 1012.2 0.0
26/11:00pm 19.6 14.0 3.7 35 7.6 S 22 30 12 16 1012.8 1012.3 0.0
26/10:30pm 18.1 14.3 2.0 34 7.3 S 11 13 6 7 1012.6 1012.1 0.0
26/10:00pm 19.6 15.4 1.6 30 8.2 S 13 15 7 8 1012.5 1012.0 0.0
26/09:30pm 19.7 15.9 1.7 30 8.2 SSW 11 13 6 7 1012.3 1011.8 0.0
26/09:00pm 21.1 16.8 0.9 26 9.2 SSW 13 17 7 9 1012.1 1011.6 0.0
26/08:30pm 22.6 17.1 0.4 23 10.1 SSW 19 24 10 13 1011.9 1011.4 0.0
26/08:00pm 23.6 17.8 0.0 21 10.8 SW 20 28 11 15 1011.7 1011.2 0.0
26/07:30pm 24.3 18.6 0.6 21 11.0 SSW 20 32 11 17 1011.6 1011.1 0.0
26/07:00pm 24.8 19.6 0.3 20 11.4 SW 17 26 9 14 1011.3 1010.8 0.0
26/06:30pm 24.9 19.3 1.1 21 11.2 SSW 20 28 11 15 1011.1 1010.7 0.0
26/06:00pm 25.1 19.6 0.6 20 11.5 S 19 28 10 15 1011.0 1010.6 0.0
26/05:30pm 24.8 19.1 0.3 20 11.4 SSW 20 35 11 19 1011.1 1010.7 0.0
26/05:00pm 24.9 19.5 1.1 21 11.2 S 19 28 10 15 1011.5 1011.0 0.0
26/04:42pm 25.3 19.8 2.1 22 11.2 SW 20 41 11 22 1011.5 1011.0 0.0
26/04:30pm 24.9 19.9 1.1 21 11.2 WSW 17 28 9 15 1011.7 1011.2 0.0
26/04:00pm 24.9 19.5 2.4 23 10.9 S 20 32 11 17 1012.1 1011.6 0.0
26/03:30pm 24.1 18.6 1.7 23 10.6 SW 20 35 11 19 1012.3 1011.8 0.0
26/03:00pm 23.7 17.5 2.0 24 10.3 SSW 24 39 13 21 1012.7 1012.2 0.0
26/02:30pm 23.7 18.9 2.5 25 10.2 SW 17 28 9 15 1013.1 1012.6 0.0
26/02:00pm 23.4 18.6 2.8 26 9.9 S 17 30 9 16 1013.5 1013.0 0.0
26/01:30pm 22.6 17.8 2.7 27 9.5 S 17 30 9 16 1013.9 1013.4 0.0
26/01:00pm 22.5 17.4 3.1 28 9.3 SW 19 30 10 16 1014.2 1013.7 0.0
26/12:30pm 21.6 16.5 3.3 30 8.8 SSW 19 33 10 18 1014.4 1013.9 0.0
26/12:00pm 21.5 16.2 3.2 30 8.7 SW 20 32 11 17 1014.6 1014.1 0.0
26/11:30am 21.2 16.3 3.9 32 8.4 S 19 28 10 15 1014.9 1014.4 0.0
26/11:00am 20.6 15.1 3.8 33 8.1 S 22 32 12 17 1015.1 1014.6 0.0
26/10:30am 19.6 13.7 3.7 35 7.6 S 24 32 13 17 1015.2 1014.7 0.0
26/10:00am 19.3 13.3 3.5 35 7.5 S 24 32 13 17 1015.1 1014.6 0.0
26/09:30am 18.0 12.2 4.2 40 6.6 S 24 32 13 17 1015.2 1014.7 0.0
26/09:00am 17.3 11.5 4.6 43 6.0 S 24 35 13 19 1015.1 1014.6 0.0
26/08:30am 16.3 10.7 5.3 48 5.3 S 24 33 13 18 1014.9 1014.4 0.0
26/08:00am 15.4 10.2 5.3 51 4.8 S 22 33 12 18 1014.7 1014.2 0.0
26/07:30am 14.2 9.3 5.3 55 4.2 S 20 26 11 14 1014.4 1013.9 0.0
26/07:00am 12.8 8.9 5.2 60 3.5 SSW 15 19 8 10 1014.3 1013.8 0.0
26/06:30am 12.0 8.4 5.2 63 3.1 SSW 13 17 7 9 1013.9 1013.4 0.0
26/06:00am 12.5 8.9 5.0 60 3.5 S 13 17 7 9 1013.4 1012.9 0.0
26/05:30am 13.4 10.2 5.1 57 3.9 S 11 15 6 8 1013.0 1012.5 0.0
26/05:00am 13.7 10.4 4.8 55 4.1 SSE 11 15 6 8 1012.8 1012.3 0.0
26/04:30am 14.2 10.6 4.8 53 4.4 S 13 17 7 9 1012.5 1012.0 0.0
26/04:00am 14.8 10.7 4.5 50 4.8 S 15 20 8 11 1012.3 1011.8 0.0
26/03:30am 15.1 11.0 4.5 49 5.0 S 15 19 8 10 1012.1 1011.6 0.0
26/03:00am 15.5 11.3 3.9 46 5.4 S 15 19 8 10 1011.9 1011.4 0.0
26/02:30am 15.9 11.3 3.7 44 5.6 SSW 17 22 9 12 1011.9 1011.4 0.0
26/02:00am 16.6 11.5 3.3 41 6.1 SSW 19 24 10 13 1011.7 1011.2 0.0
26/01:30am 16.9 11.8 3.2 40 6.3 SW 19 24 10 13 1011.7 1011.2 0.0
26/01:00am 17.2 12.1 2.8 38 6.6 SW 19 24 10 13 1011.7 1011.2 0.0
26/12:30am 16.4 12.3 2.4 39 6.3 SW 13 17 7 9 1011.6 1011.1 0.0
26/12:00am 17.4 13.0 2.6 37 6.8 SW 15 17 8 9 1011.5 1011.0 0.0
 
Date/Time
EDT
Temp
°C
App
Temp
°C
Dew
Point
Rel
Hum
%
Delta-T
°C
Wind Press
QNH
hPa
Press
MSL
hPa
Rain
since 9 am
mm
Dir
 
Spd
km/h
Gust
km/h
Spd
kts
Gust
kts
25/11:30pm 18.3 14.2 2.2 34 7.4 SSW 13 17 7 9 1011.5 1011.0 0.0
25/11:00pm 18.7 14.3 2.5 34 7.5 SSW 15 17 8 9 1011.1 1010.7 0.0
25/10:30pm 19.7 14.9 2.6 32 8.0 SSW 17 19 9 10 1011.1 1010.7 0.0
25/10:00pm 20.6 15.4 2.4 30 8.5 SSW 19 20 10 11 1010.8 1010.4 0.0
25/09:30pm 20.9 16.0 1.7 28 8.9 SSW 17 20 9 11 1010.5 1010.1 0.0
25/09:00pm 22.2 16.6 1.3 25 9.7 SSW 20 26 11 14 1010.3 1009.9 0.0
25/08:30pm 23.0 17.2 0.2 22 10.4 SW 20 30 11 16 1010.0 1009.6 0.0
25/08:00pm 24.3 17.4 -0.1 20 11.2 SW 26 35 14 19 1009.6 1009.2 0.0
25/07:30pm 25.1 18.6 0.6 20 11.5 SSW 24 35 13 19 1009.4 1009.0 0.0
25/07:00pm 25.6 18.8 1.0 20 11.7 SW 26 35 14 19 1009.0 1008.6 0.0
25/06:30pm 26.0 18.1 1.3 20 11.8 SW 32 44 17 24 1008.8 1008.4 0.0
25/06:00pm 26.0 17.9 1.3 20 11.8 SW 33 43 18 23 1008.5 1008.1 0.0
25/05:30pm 26.7 19.2 1.2 19 12.2 SW 30 39 16 21 1008.4 1008.0 0.0
25/05:00pm 26.5 18.0 1.0 19 12.2 WSW 35 46 19 25 1008.4 1008.0 0.0
25/04:38pm 26.3 18.9 1.6 20 11.9 SW 30 50 16 27 1008.4 1008.0 0.0
25/04:30pm 26.2 18.7 1.5 20 11.8 WSW 30 43 16 23 1008.3 1007.9 0.0
25/04:00pm 26.5 19.2 2.4 21 11.8 SW 30 44 16 24 1008.5 1008.1 0.0
25/03:43pm 26.1 19.0 3.4 23 11.3 SW 30 57 16 31 1008.3 1007.9 0.0
25/03:30pm 25.2 18.0 3.2 24 10.8 SW 30 50 16 27 1008.6 1008.2 0.0
25/03:10pm 26.0 19.3 3.9 24 11.0 SW 28 46 15 25 1008.7 1008.3 0.0
25/03:00pm 25.3 17.9 3.9 25 10.7 SW 32 43 17 23 1008.7 1008.3 0.0
25/02:30pm 25.3 18.1 5.0 27 10.3 SW 32 46 17 25 1008.5 1008.1 0.0
25/02:00pm 24.8 17.5 5.6 29 9.8 SW 33 48 18 26 1008.7 1008.3 0.0
25/01:51pm 24.8 18.1 5.6 29 9.8 SW 30 48 16 26 1008.7 1008.3 0.0
25/01:30pm 24.3 17.0 4.6 28 9.9 WSW 32 44 17 24 1008.9 1008.5 0.0
25/01:00pm 23.8 16.4 5.2 30 9.4 WSW 33 46 18 25 1009.0 1008.6 0.0
25/12:30pm 23.5 16.5 5.9 32 9.0 WSW 32 39 17 21 1009.1 1008.7 0.0
25/12:00pm 23.5 16.8 7.2 35 8.5 WSW 32 46 17 25 1009.2 1008.8 0.0
25/11:30am 22.6 16.0 7.6 38 7.8 SW 32 43 17 23 1009.2 1008.8 0.0
25/11:00am 22.2 16.1 8.3 41 7.4 SW 30 43 16 23 1009.1 1008.7 0.0
25/10:30am 21.6 15.4 9.2 45 6.6 SW 32 41 17 22 1009.0 1008.6 0.0
25/10:00am 21.3 15.5 9.5 47 6.4 SW 30 41 16 22 1009.1 1008.7 0.0
25/09:30am 20.4 14.8 10.2 52 5.5 SW 30 39 16 21 1008.9 1008.5 0.0
25/09:00am 19.9 14.8 10.6 55 5.1 SW 28 37 15 20 1008.8 1008.4 0.6
25/08:30am 19.3 14.8 11.3 60 4.4 WSW 26 35 14 19 1008.6 1008.2 0.6
25/08:00am 18.9 14.1 11.5 62 4.1 WSW 28 35 15 19 1008.3 1007.9 0.6

Other Formats:

Comma delimited format used in spreadsheet applications
http://www.bom.gov.au/fwo/IDN60801/IDN60801.94702.axf

JavaScript Object Notation format (JSON) in row-major order
http://www.bom.gov.au/fwo/IDN60801/IDN60801.94702.json